createdAt,value
2019-03-31T00:00:38.252Z,9.80
2019-03-31T00:03:27.101Z,9.74
2019-03-31T00:05:56.593Z,9.70
2019-03-31T00:08:26.081Z,9.60
2019-03-31T00:10:55.568Z,9.60
2019-03-31T00:13:25.062Z,9.58
2019-03-31T00:15:54.500Z,9.51
2019-03-31T00:18:23.956Z,9.46
2019-03-31T00:20:53.544Z,9.41
2019-03-31T00:23:22.987Z,9.31
2019-03-31T00:25:55.351Z,9.30
2019-03-31T00:28:24.853Z,9.29
2019-03-31T00:30:55.020Z,9.29
2019-03-31T00:33:24.640Z,9.28
2019-03-31T00:35:54.134Z,9.18
2019-03-31T00:38:23.673Z,9.19
2019-03-31T00:40:53.139Z,9.18
2019-03-31T00:43:22.644Z,9.23
2019-03-31T00:45:52.126Z,9.22
2019-03-31T00:48:21.618Z,9.18
2019-03-31T00:50:51.112Z,9.20
2019-03-31T00:53:20.585Z,9.17
2019-03-31T00:55:50.002Z,9.15
2019-03-31T00:58:24.487Z,9.14
2019-03-31T01:00:56.437Z,9.13
2019-03-31T01:03:26.211Z,9.12
2019-03-31T01:05:55.873Z,9.07
2019-03-31T01:08:26.218Z,9.09
2019-03-31T01:10:56.084Z,9.10
2019-03-31T01:13:25.575Z,9.03
2019-03-31T01:15:55.136Z,9.03
2019-03-31T01:18:24.849Z,8.99
2019-03-31T01:20:54.315Z,8.94
2019-03-31T01:23:23.785Z,8.86
2019-03-31T01:25:53.268Z,8.82
2019-03-31T01:28:22.727Z,8.77
2019-03-31T01:30:52.218Z,8.79
2019-03-31T01:33:21.742Z,8.72
2019-03-31T01:35:51.295Z,8.72
2019-03-31T01:38:20.770Z,8.68
2019-03-31T01:40:50.296Z,8.67
2019-03-31T01:43:19.764Z,8.62
2019-03-31T01:45:49.231Z,8.65
2019-03-31T01:48:18.670Z,8.61
2019-03-31T01:50:48.150Z,8.57
2019-03-31T01:53:17.628Z,8.58
2019-03-31T01:55:47.111Z,8.55
2019-03-31T01:58:16.585Z,8.51
2019-03-31T02:00:50.631Z,8.47
2019-03-31T02:03:20.216Z,8.44
2019-03-31T02:05:49.689Z,8.40
2019-03-31T02:08:19.119Z,8.36
2019-03-31T02:10:48.630Z,8.36
2019-03-31T02:13:18.082Z,8.33
2019-03-31T02:15:47.609Z,8.35
2019-03-31T02:18:17.179Z,8.35
2019-03-31T02:20:46.714Z,8.36
2019-03-31T02:23:16.222Z,8.36
2019-03-31T02:25:45.709Z,8.33
2019-03-31T02:28:15.176Z,8.29
2019-03-31T02:30:46.441Z,8.29
2019-03-31T02:33:15.894Z,8.30
2019-03-31T02:35:45.359Z,8.27
2019-03-31T02:38:14.856Z,8.32
2019-03-31T02:40:44.432Z,8.33
2019-03-31T02:43:13.896Z,8.28
2019-03-31T02:45:43.376Z,8.28
2019-03-31T02:48:14.713Z,8.28
2019-03-31T02:50:47.344Z,8.30
2019-03-31T02:53:17.632Z,8.22
2019-03-31T02:55:47.095Z,8.19
2019-03-31T02:58:16.700Z,8.18
2019-03-31T03:00:46.572Z,8.18
2019-03-31T03:03:19.336Z,8.23
2019-03-31T03:05:48.837Z,8.22
2019-03-31T03:08:19.358Z,8.18
2019-03-31T03:10:51.449Z,8.18
2019-03-31T03:13:22.759Z,8.15
2019-03-31T03:16:11.505Z,8.10
2019-03-31T03:18:41.006Z,8.04
2019-03-31T03:21:10.478Z,8.02
2019-03-31T03:23:39.945Z,8.00
2019-03-31T03:26:09.464Z,7.97
2019-03-31T03:28:38.938Z,7.93
2019-03-31T03:31:15.289Z,7.86
2019-03-31T03:33:39.698Z,7.88
2019-03-31T03:36:09.158Z,7.84
2019-03-31T03:38:38.631Z,7.79
2019-03-31T03:41:08.126Z,7.74
2019-03-31T03:43:54.049Z,7.71
2019-03-31T03:46:08.781Z,7.66
2019-03-31T03:48:38.285Z,7.65
2019-03-31T03:51:07.749Z,7.62
2019-03-31T03:53:37.209Z,7.60
2019-03-31T03:56:06.831Z,7.63
2019-03-31T03:58:36.383Z,7.64
2019-03-31T04:01:07.405Z,7.61
2019-03-31T04:03:36.917Z,7.57
2019-03-31T04:06:06.386Z,7.56
2019-03-31T04:08:36.055Z,7.49
2019-03-31T04:11:21.843Z,7.50
2019-03-31T04:13:51.546Z,7.44
2019-03-31T04:16:21.020Z,7.41
2019-03-31T04:18:50.588Z,7.43
2019-03-31T04:21:20.097Z,7.49
2019-03-31T04:23:49.734Z,7.45
2019-03-31T04:26:19.233Z,7.43
2019-03-31T04:28:48.781Z,7.47
2019-03-31T04:31:18.290Z,7.44
2019-03-31T04:33:52.275Z,7.42
2019-03-31T04:36:18.999Z,7.38
2019-03-31T04:38:48.564Z,7.30
2019-03-31T04:41:18.132Z,7.28
2019-03-31T04:43:47.571Z,7.23
2019-03-31T04:46:17.080Z,7.20
2019-03-31T04:48:46.560Z,7.22
2019-03-31T04:51:16.021Z,7.22
2019-03-31T04:53:45.549Z,7.21
2019-03-31T04:56:15.009Z,7.23
2019-03-31T04:58:44.508Z,7.16
2019-03-31T05:01:13.964Z,7.13
2019-03-31T05:03:43.665Z,7.05
2019-03-31T05:06:13.270Z,7.01
2019-03-31T05:08:42.735Z,6.98
2019-03-31T05:11:12.196Z,7.00
2019-03-31T05:13:41.660Z,6.96
2019-03-31T05:16:11.130Z,6.92
2019-03-31T05:18:40.757Z,6.92
2019-03-31T05:21:10.346Z,6.87
2019-03-31T05:23:39.814Z,6.87
2019-03-31T05:26:09.481Z,6.88
2019-03-31T05:28:38.965Z,6.89
2019-03-31T05:31:08.403Z,6.94
2019-03-31T05:33:37.867Z,6.93
2019-03-31T05:36:07.437Z,6.98
2019-03-31T05:38:37.009Z,7.05
2019-03-31T05:41:06.441Z,7.10
2019-03-31T05:43:35.952Z,7.14
2019-03-31T05:46:05.451Z,7.20
2019-03-31T05:48:34.928Z,7.24
2019-03-31T05:51:04.408Z,7.27
2019-03-31T05:53:33.864Z,7.35
2019-03-31T05:56:03.379Z,7.45
2019-03-31T05:58:32.850Z,7.52
2019-03-31T06:01:02.425Z,7.65
2019-03-31T06:03:31.887Z,7.76
2019-03-31T06:06:01.373Z,7.83
2019-03-31T06:08:30.839Z,7.91
2019-03-31T06:11:00.299Z,8.03
2019-03-31T06:13:29.796Z,8.13
2019-03-31T06:15:59.288Z,8.24
2019-03-31T06:18:28.753Z,8.26
2019-03-31T06:20:58.285Z,8.37
2019-03-31T06:23:27.825Z,8.43
2019-03-31T06:25:57.241Z,8.54
2019-03-31T06:28:26.700Z,8.62
2019-03-31T06:30:56.163Z,8.72
2019-03-31T06:33:25.648Z,8.79
2019-03-31T06:35:55.203Z,8.90
2019-03-31T06:38:24.728Z,9.00
2019-03-31T06:40:58.495Z,9.13
2019-03-31T06:43:27.987Z,9.27
2019-03-31T06:45:57.460Z,9.34
2019-03-31T06:48:26.928Z,9.44
2019-03-31T06:50:56.435Z,9.54
2019-03-31T06:53:25.821Z,9.70
2019-03-31T06:55:55.282Z,9.72
2019-03-31T06:58:24.787Z,9.78
2019-03-31T07:00:54.290Z,9.87
2019-03-31T07:03:23.739Z,9.93
2019-03-31T07:05:53.229Z,9.99
2019-03-31T07:08:22.760Z,10.10
2019-03-31T07:10:52.421Z,10.19
2019-03-31T07:13:21.916Z,10.28
2019-03-31T07:15:51.390Z,10.40
2019-03-31T07:18:20.875Z,10.47
2019-03-31T07:20:50.790Z,10.57
2019-03-31T07:23:20.293Z,10.70
2019-03-31T07:25:49.813Z,10.73
2019-03-31T07:28:19.308Z,10.82
2019-03-31T07:30:48.800Z,10.93
2019-03-31T07:33:18.270Z,10.99
2019-03-31T07:35:47.869Z,11.07
2019-03-31T07:38:17.583Z,11.17
2019-03-31T07:40:47.257Z,11.26
2019-03-31T07:43:17.008Z,11.39
2019-03-31T07:45:46.744Z,11.52
2019-03-31T07:48:28.772Z,11.56
2019-03-31T07:50:59.803Z,11.64
2019-03-31T07:53:29.291Z,11.78
2019-03-31T07:55:58.902Z,11.90
2019-03-31T07:58:28.377Z,12.00
2019-03-31T08:00:58.000Z,12.11
2019-03-31T08:03:27.505Z,12.24
2019-03-31T08:05:56.985Z,12.38
2019-03-31T08:08:26.454Z,12.55
2019-03-31T08:10:55.951Z,12.67
2019-03-31T08:13:25.502Z,12.83
2019-03-31T08:15:54.979Z,13.03
2019-03-31T08:18:24.474Z,13.25
2019-03-31T08:20:54.128Z,13.50
2019-03-31T08:23:23.602Z,13.72
2019-03-31T08:25:53.090Z,13.88
2019-03-31T08:28:22.775Z,14.03
2019-03-31T08:30:52.247Z,14.17
2019-03-31T08:33:21.778Z,14.29
2019-03-31T08:35:51.261Z,14.43
2019-03-31T08:38:24.243Z,14.62
2019-03-31T08:40:51.959Z,14.85
2019-03-31T08:43:21.449Z,14.95
2019-03-31T08:45:50.922Z,15.03
2019-03-31T08:48:20.430Z,15.22
2019-03-31T08:50:49.904Z,15.42
2019-03-31T08:53:19.380Z,15.57
2019-03-31T08:55:48.885Z,15.63
2019-03-31T08:58:20.227Z,15.85
2019-03-31T09:00:51.286Z,15.88
2019-03-31T09:03:20.908Z,15.99
2019-03-31T09:06:01.140Z,16.15
2019-03-31T09:08:21.593Z,16.32
2019-03-31T09:10:51.097Z,16.45
2019-03-31T09:13:20.677Z,16.73
2019-03-31T09:15:50.147Z,16.89
2019-03-31T09:18:19.655Z,17.01
2019-03-31T09:20:49.144Z,17.16
2019-03-31T09:23:18.624Z,17.00
2019-03-31T09:25:48.145Z,17.13
2019-03-31T09:28:17.613Z,17.33
2019-03-31T09:30:47.119Z,17.46
2019-03-31T09:33:16.653Z,17.63
2019-03-31T09:35:46.193Z,17.95
2019-03-31T09:38:15.758Z,18.18
2019-03-31T09:40:45.252Z,18.26
2019-03-31T09:43:14.844Z,18.36
2019-03-31T09:45:44.381Z,18.57
2019-03-31T09:48:13.968Z,18.99
2019-03-31T09:50:43.453Z,19.32
2019-03-31T09:53:12.923Z,19.45
2019-03-31T09:55:42.437Z,19.61
2019-03-31T09:58:11.917Z,19.91
2019-03-31T10:00:48.974Z,20.12
2019-03-31T10:03:18.486Z,20.21
2019-03-31T10:05:48.440Z,20.40
2019-03-31T10:08:21.527Z,20.62
2019-03-31T10:10:49.342Z,20.92
2019-03-31T10:13:18.920Z,21.20
2019-03-31T10:15:48.546Z,21.33
2019-03-31T10:18:18.424Z,21.27
2019-03-31T10:20:48.214Z,21.03
2019-03-31T10:23:17.819Z,21.18
2019-03-31T10:25:47.292Z,21.40
2019-03-31T10:28:16.794Z,21.77
2019-03-31T10:30:46.292Z,21.76
2019-03-31T10:33:15.768Z,21.93
2019-03-31T10:35:45.331Z,22.22
2019-03-31T10:38:14.926Z,22.75
2019-03-31T10:40:44.427Z,22.96
2019-03-31T10:43:13.942Z,22.77
2019-03-31T10:45:43.414Z,22.92
2019-03-31T10:48:20.211Z,23.20
2019-03-31T10:50:44.223Z,23.38
2019-03-31T10:53:13.708Z,23.50
2019-03-31T10:55:43.266Z,23.76
2019-03-31T10:58:12.810Z,23.76
2019-03-31T11:00:44.443Z,23.77
2019-03-31T11:03:13.583Z,23.81
2019-03-31T11:05:43.078Z,24.22
2019-03-31T11:08:12.576Z,24.66
2019-03-31T11:10:42.171Z,24.63
2019-03-31T11:13:11.639Z,25.04
2019-03-31T11:15:41.145Z,25.43
2019-03-31T11:18:10.671Z,25.51
2019-03-31T11:20:40.145Z,25.19
2019-03-31T11:23:11.230Z,25.40
2019-03-31T11:25:40.750Z,25.72
2019-03-31T11:28:10.283Z,26.00
2019-03-31T11:30:39.797Z,26.21
2019-03-31T11:33:09.485Z,26.51
2019-03-31T11:35:39.318Z,26.68
2019-03-31T11:38:08.792Z,26.13
2019-03-31T11:40:38.303Z,25.76
2019-03-31T11:43:07.976Z,26.16
2019-03-31T11:45:37.489Z,26.50
2019-03-31T11:48:06.990Z,26.55
2019-03-31T11:50:36.462Z,26.70
2019-03-31T11:53:05.944Z,26.88
2019-03-31T11:55:35.465Z,27.10
2019-03-31T11:58:04.966Z,27.45
2019-03-31T12:00:36.019Z,27.93
2019-03-31T12:03:05.517Z,28.10
2019-03-31T12:05:35.099Z,27.50
2019-03-31T12:08:04.606Z,27.71
2019-03-31T12:10:34.201Z,28.87
2019-03-31T12:13:03.826Z,31.39
2019-03-31T12:15:33.320Z,32.29
2019-03-31T12:18:02.821Z,33.37
2019-03-31T12:20:32.407Z,34.34
2019-03-31T12:23:01.869Z,35.82
2019-03-31T12:25:31.515Z,37.58
2019-03-31T12:28:01.025Z,39.02
2019-03-31T12:30:30.495Z,39.42
2019-03-31T12:33:00.028Z,39.79
2019-03-31T12:35:29.500Z,41.29
2019-03-31T12:37:59.027Z,41.68
2019-03-31T12:40:36.788Z,40.98
2019-03-31T12:43:06.278Z,41.54
2019-03-31T12:45:35.786Z,41.74
2019-03-31T12:48:05.291Z,41.45
2019-03-31T12:50:34.762Z,41.27
2019-03-31T12:53:04.232Z,40.30
2019-03-31T12:55:33.788Z,40.09
2019-03-31T12:58:03.278Z,39.82
2019-03-31T13:00:32.778Z,40.47
2019-03-31T13:03:02.291Z,40.16
2019-03-31T13:05:31.761Z,39.49
2019-03-31T13:08:01.287Z,40.69
2019-03-31T13:10:30.813Z,41.80
2019-03-31T13:13:00.297Z,41.51
2019-03-31T13:15:29.766Z,41.54
2019-03-31T13:17:59.256Z,41.22
2019-03-31T13:20:28.754Z,41.84
2019-03-31T13:22:58.245Z,43.79
2019-03-31T13:25:27.961Z,44.72
2019-03-31T13:27:57.487Z,44.42
2019-03-31T13:30:27.009Z,44.11
2019-03-31T13:32:56.501Z,43.74
2019-03-31T13:35:26.280Z,44.64
2019-03-31T13:38:10.027Z,46.07
2019-03-31T13:40:27.062Z,46.54
2019-03-31T13:42:57.604Z,46.15
2019-03-31T13:45:28.392Z,45.53
2019-03-31T13:47:58.988Z,44.15
2019-03-31T13:50:28.516Z,42.54
2019-03-31T13:52:57.990Z,43.07
2019-03-31T13:55:27.755Z,42.25
2019-03-31T13:57:58.087Z,42.04
2019-03-31T14:00:41.829Z,41.57
2019-03-31T14:03:11.313Z,40.05
2019-03-31T14:06:00.229Z,38.57
2019-03-31T14:08:29.718Z,37.48
2019-03-31T14:10:59.238Z,37.07
2019-03-31T14:13:28.712Z,37.67
2019-03-31T14:15:58.300Z,39.17
2019-03-31T14:18:27.795Z,39.70
2019-03-31T14:20:57.281Z,40.38
2019-03-31T14:23:26.742Z,41.19
2019-03-31T14:25:56.253Z,41.06
2019-03-31T14:28:25.743Z,41.79
2019-03-31T14:30:55.405Z,41.90
2019-03-31T14:33:24.903Z,41.80
2019-03-31T14:35:54.375Z,41.08
2019-03-31T14:38:23.983Z,39.96
2019-03-31T14:40:53.576Z,39.63
2019-03-31T14:43:23.066Z,38.48
2019-03-31T14:45:52.549Z,38.39
2019-03-31T14:48:22.042Z,38.72
2019-03-31T14:50:51.513Z,38.76
2019-03-31T14:53:20.999Z,39.44
2019-03-31T14:55:50.512Z,37.72
2019-03-31T14:58:19.998Z,37.00
2019-03-31T15:00:49.479Z,37.40
2019-03-31T15:03:19.072Z,38.11
2019-03-31T15:05:48.630Z,38.64
2019-03-31T15:08:18.185Z,39.29
2019-03-31T15:10:47.799Z,38.37
2019-03-31T15:13:17.269Z,37.03
2019-03-31T15:15:46.733Z,36.60
2019-03-31T15:18:16.305Z,36.58
2019-03-31T15:20:45.809Z,35.84
2019-03-31T15:23:15.278Z,35.22
2019-03-31T15:25:44.789Z,34.81
2019-03-31T15:28:14.286Z,34.55
2019-03-31T15:30:43.771Z,34.04
2019-03-31T15:33:13.266Z,33.87
2019-03-31T15:35:43.237Z,33.55
2019-03-31T15:38:12.720Z,33.26
2019-03-31T15:40:42.227Z,33.29
2019-03-31T15:43:11.719Z,32.91
2019-03-31T15:45:41.279Z,32.45
2019-03-31T15:48:10.777Z,32.33
2019-03-31T15:50:40.259Z,32.42
2019-03-31T15:53:09.723Z,31.85
2019-03-31T15:55:39.236Z,31.55
2019-03-31T15:58:08.723Z,30.60
2019-03-31T16:00:38.208Z,29.59
2019-03-31T16:03:07.702Z,28.79
2019-03-31T16:05:37.201Z,28.33
2019-03-31T16:08:06.667Z,27.90
2019-03-31T16:10:36.175Z,27.73
2019-03-31T16:13:05.708Z,27.08
2019-03-31T16:15:35.196Z,26.91
2019-03-31T16:18:04.686Z,26.75
2019-03-31T16:20:34.238Z,26.66
2019-03-31T16:23:03.731Z,26.52
2019-03-31T16:25:34.825Z,25.82
2019-03-31T16:28:04.287Z,25.49
2019-03-31T16:30:35.270Z,25.54
2019-03-31T16:33:07.019Z,25.59
2019-03-31T16:35:35.988Z,25.48
2019-03-31T16:38:05.480Z,25.42
2019-03-31T16:40:34.973Z,25.28
2019-03-31T16:43:04.628Z,24.96
2019-03-31T16:45:34.145Z,24.83
2019-03-31T16:48:03.650Z,24.64
2019-03-31T16:50:33.123Z,24.33
2019-03-31T16:53:02.621Z,24.16
2019-03-31T16:55:32.119Z,23.99
2019-03-31T16:58:01.593Z,23.65
2019-03-31T17:00:31.074Z,23.17
2019-03-31T17:03:00.606Z,22.86
2019-03-31T17:05:30.106Z,22.37
2019-03-31T17:07:59.563Z,22.07
2019-03-31T17:10:29.105Z,21.90
2019-03-31T17:12:58.600Z,21.63
2019-03-31T17:15:28.134Z,21.46
2019-03-31T17:17:57.643Z,21.41
2019-03-31T17:20:27.120Z,21.32
2019-03-31T17:22:56.675Z,21.20
2019-03-31T17:25:26.200Z,21.09
2019-03-31T17:27:55.708Z,20.89
2019-03-31T17:30:25.194Z,20.75
2019-03-31T17:32:54.718Z,20.64
2019-03-31T17:35:24.207Z,20.56
2019-03-31T17:37:53.686Z,20.45
2019-03-31T17:40:23.188Z,20.35
2019-03-31T17:42:52.673Z,20.21
2019-03-31T17:45:22.337Z,20.11
2019-03-31T17:47:51.863Z,19.91
2019-03-31T17:50:21.367Z,19.92
2019-03-31T17:52:50.994Z,19.91
2019-03-31T17:55:20.566Z,19.81
2019-03-31T17:57:49.962Z,19.67
2019-03-31T18:00:19.450Z,19.62
2019-03-31T18:02:49.019Z,19.46
2019-03-31T18:05:18.528Z,19.32
2019-03-31T18:07:48.011Z,19.26
2019-03-31T18:10:21.177Z,19.19
2019-03-31T18:12:48.690Z,19.18
2019-03-31T18:15:18.193Z,19.11
2019-03-31T18:17:47.687Z,19.00
2019-03-31T18:20:17.192Z,18.89
2019-03-31T18:22:46.666Z,18.84
2019-03-31T18:25:16.211Z,18.77
2019-03-31T18:27:45.709Z,18.69
2019-03-31T18:30:16.200Z,18.74
2019-03-31T18:32:45.703Z,18.73
2019-03-31T18:35:16.955Z,18.67
2019-03-31T18:37:46.389Z,18.61
2019-03-31T18:40:15.909Z,18.58
2019-03-31T18:42:45.614Z,18.47
2019-03-31T18:45:15.481Z,18.34
2019-03-31T18:47:45.455Z,18.28
2019-03-31T18:50:15.385Z,18.26
2019-03-31T18:52:45.103Z,18.22
2019-03-31T18:55:25.393Z,18.22
2019-03-31T18:57:56.437Z,18.14
2019-03-31T19:00:27.582Z,18.11
2019-03-31T19:03:05.200Z,18.10
2019-03-31T19:05:48.066Z,18.08
2019-03-31T19:08:34.696Z,18.02
2019-03-31T19:11:09.198Z,17.90
2019-03-31T19:13:54.524Z,17.82
2019-03-31T19:16:13.113Z,17.83
2019-03-31T19:18:55.949Z,17.81
2019-03-31T19:21:32.533Z,17.76
2019-03-31T19:24:05.817Z,17.73
2019-03-31T19:26:48.353Z,17.71
2019-03-31T19:29:24.140Z,17.71
2019-03-31T19:32:01.577Z,17.63
2019-03-31T19:34:32.660Z,17.59
2019-03-31T19:37:06.677Z,17.61
2019-03-31T19:39:54.081Z,17.61
2019-03-31T19:42:33.918Z,17.50
2019-03-31T19:45:21.961Z,17.41
2019-03-31T19:47:53.022Z,17.31
2019-03-31T19:50:24.075Z,17.25
2019-03-31T19:53:11.675Z,17.13
2019-03-31T19:56:07.462Z,17.04
2019-03-31T19:58:47.520Z,16.90
2019-03-31T20:01:37.647Z,16.81
2019-03-31T20:04:08.731Z,16.78
2019-03-31T20:06:45.496Z,16.74
2019-03-31T20:09:16.592Z,16.78
2019-03-31T20:11:50.847Z,16.80
2019-03-31T20:14:21.946Z,16.74
2019-03-31T20:16:55.795Z,16.75
2019-03-31T20:19:36.006Z,16.73
2019-03-31T20:22:07.082Z,16.70
2019-03-31T20:24:50.140Z,16.64
2019-03-31T20:27:23.903Z,16.59
2019-03-31T20:30:11.368Z,16.56
2019-03-31T20:32:51.342Z,16.49
2019-03-31T20:35:25.186Z,16.47
2019-03-31T20:37:56.267Z,16.41
2019-03-31T20:40:27.533Z,16.33
2019-03-31T20:43:07.865Z,16.32
2019-03-31T20:45:37.369Z,16.30
2019-03-31T20:48:06.876Z,16.25
2019-03-31T20:50:36.399Z,16.18
2019-03-31T20:53:05.988Z,16.12
2019-03-31T20:55:35.460Z,16.12
2019-03-31T20:58:05.002Z,16.09
2019-03-31T21:00:34.508Z,16.10
2019-03-31T21:03:04.042Z,16.12
2019-03-31T21:05:33.548Z,16.15
2019-03-31T21:08:03.154Z,16.12
2019-03-31T21:10:32.664Z,16.10
2019-03-31T21:13:02.225Z,16.13
2019-03-31T21:15:31.716Z,16.15
2019-03-31T21:18:01.214Z,16.12
2019-03-31T21:20:30.719Z,16.02
2019-03-31T21:23:00.190Z,15.97
2019-03-31T21:25:29.682Z,15.98
2019-03-31T21:27:59.191Z,15.95
2019-03-31T21:30:28.673Z,15.86
2019-03-31T21:32:58.141Z,15.78
2019-03-31T21:35:27.647Z,15.70
2019-03-31T21:37:57.133Z,15.57
2019-03-31T21:40:26.611Z,15.44
2019-03-31T21:42:56.123Z,15.40
2019-03-31T21:45:25.601Z,15.34
2019-03-31T21:47:55.119Z,15.36
2019-03-31T21:50:24.617Z,15.36
2019-03-31T21:52:54.117Z,15.32
2019-03-31T21:55:23.642Z,15.32
2019-03-31T21:57:53.111Z,15.26
2019-03-31T22:00:24.165Z,15.20
2019-03-31T22:02:53.682Z,15.12
2019-03-31T22:05:23.158Z,15.06
2019-03-31T22:07:52.648Z,15.02
2019-03-31T22:10:22.094Z,14.98
2019-03-31T22:12:51.576Z,14.93
2019-03-31T22:15:21.054Z,14.97
2019-03-31T22:17:50.562Z,14.90
2019-03-31T22:20:19.975Z,14.86
2019-03-31T22:22:49.548Z,14.75
2019-03-31T22:25:19.046Z,14.70
2019-03-31T22:27:48.531Z,14.65
2019-03-31T22:30:18.015Z,14.54
2019-03-31T22:32:47.485Z,14.43
2019-03-31T22:35:16.958Z,14.43
2019-03-31T22:37:46.435Z,14.38
2019-03-31T22:40:15.937Z,14.33
2019-03-31T22:42:45.431Z,14.20
2019-03-31T22:45:14.904Z,14.06
2019-03-31T22:47:44.413Z,14.00
2019-03-31T22:50:13.881Z,13.89
2019-03-31T22:52:43.475Z,13.79
2019-03-31T22:55:13.063Z,13.73
2019-03-31T22:57:42.551Z,13.67
2019-03-31T23:00:14.017Z,13.64
2019-03-31T23:02:43.441Z,13.58
2019-03-31T23:05:12.932Z,13.53
2019-03-31T23:07:42.412Z,13.49
2019-03-31T23:10:11.938Z,13.43
2019-03-31T23:12:41.447Z,13.34
2019-03-31T23:15:11.060Z,13.31
2019-03-31T23:17:40.522Z,13.28
2019-03-31T23:20:10.003Z,13.23
2019-03-31T23:22:39.466Z,13.13
2019-03-31T23:25:08.947Z,13.07
2019-03-31T23:27:38.430Z,13.05
2019-03-31T23:30:09.844Z,13.04
2019-03-31T23:32:39.331Z,12.97
2019-03-31T23:35:08.732Z,12.88
2019-03-31T23:37:38.258Z,12.81
2019-03-31T23:40:07.735Z,12.73
2019-03-31T23:42:37.214Z,12.66
2019-03-31T23:45:07.927Z,12.61
2019-03-31T23:47:37.332Z,12.52
2019-03-31T23:50:07.005Z,12.48
2019-03-31T23:52:36.514Z,12.42
2019-03-31T23:55:06.476Z,12.33
2019-03-31T23:57:42.694Z,12.24
